Huvudsida
METAR-TAF:

METAR-TAF

Flygplatser :

Bryssel-Zaventems flygplats

Bryssel, Belgien

latitud: 50-54N, longitud: 004-32E, höjd: 55 m

Aktuellt väderrapport

Denna rapport gjordes för 28 minuter sedan, klockan 01:50 UTC
Vind 5 kt från syd/sydväst
Temperatur 13°C
Fuktighet 77%
Tryck 1006 hPa
Sikt 10 km eller mer
Inga moln under 1 500 m eller inga cumulonimbus

METAR: EBBR 230150Z 20005KT CAVOK 13/09 Q1006 NOSIG

Tid: 04:18 (02:18 UTC)

Väderprognos

Denna rapport gjordes för 3 timmar och 18 minuter sedan, klockan 23:00 UTC
Prognos gäller från 23 kl. 00 UTC till 24 kl. 06 UTC
Vind 7 kt från syd/sydväst
Sikt 10 km eller mer
Inga moln under 1 500 m eller inga cumulonimbus
Temporärt
från 23 kl. 14 UTC till 24 kl. 01 UTC
Vind 15 kt från sydväst i byarna ända upp till 25 kt
Sikt: 4000 m
regnskurar

TAF: EBBR 222300Z 2300/2406 20007KT CAVOK TEMPO 2314/2401 23015G25KT 4000 SHRA

Aktuella väderrapporter och prognoser från 4000 flygplatser (METAR- och TAF-rapporter).

De tillgängliga stationerna syns som gula och röda prickar på kartan.

För musen över prickarna för att se namnen på stationerna.

Klicka sedan för att få väderrapporter och prognoser.

För att ändra kartan: Klicka på de gröna knapparna med ett svart kors på för att zooma in; den gröna knappen med ett streck på för att zooma ut; eller på de gröna pilarna för angränsande kartor.


METAR-TAF: